»·PEaware :: N5002T KBUR-KSBA

N5002T :: KBUR-KSBA

FLIGHT INFORMATION

Flight Status: Arrived
Operator: Privately registered:
United States
More flights under this callsign
Pilot: Hunter M. (19355)
Aircraft: CESSNA 172 SKYHAWK
(C172)
More flights by this aircraft type
Origin: KBUR Bob Hope-Burbank
United States
Destination: KSBA Santa Barbara Mun
United States
More flights between these airports :: More routes between these airports
Route: +VNY3 FIM V186 DEANO V27 KWANG
File this flight plan on PilotEdge
Remarks:
Altitude:
(Current/Filed)
8,000ft
Speed:
(Current/Filed)
118kts
Departed: 05-Dec-18 12:02 PM
Arrived: 05-Dec-18 01:12 PM
Distance/Time
Traveled:
75nm/1:10
Distance/Time
To Go:
Arrived

Flight Plot

Page will automatically refresh every two minutes.


Map Options




Map Legend


Flown Route
Filed Route
Departure Airport
Arrival Airport
Navaid (VOR, NDB)
Fix

Horizontal Profiles

Position Reports

Time Latitude Longitude Heading Altitude Ground
Speed
05-Dec-18 11:27 34.195965 -118.366901 181 781ft 0kts
05-Dec-18 11:28 34.195964 -118.366901 181 781ft 0kts
05-Dec-18 11:29 34.195963 -118.366901 181 781ft 0kts
05-Dec-18 11:30 34.195962 -118.366901 181 781ft 0kts
05-Dec-18 11:31 34.195961 -118.366901 181 781ft 0kts
05-Dec-18 11:32 34.195960 -118.366901 181 781ft 0kts
05-Dec-18 11:33 34.195959 -118.366901 181 781ft 0kts
05-Dec-18 11:34 34.195958 -118.366901 181 781ft 0kts
05-Dec-18 11:35 34.195957 -118.366901 181 781ft 0kts
05-Dec-18 11:36 34.195956 -118.366901 181 781ft 0kts
05-Dec-18 11:37 34.195956 -118.366901 181 781ft 0kts
05-Dec-18 11:38 34.195955 -118.366901 181 781ft 0kts
05-Dec-18 11:39 34.195954 -118.366901 181 781ft 0kts
05-Dec-18 11:40 34.195953 -118.366901 181 781ft 0kts
05-Dec-18 11:41 34.195952 -118.366901 181 781ft 0kts
05-Dec-18 11:42 34.195951 -118.366901 181 781ft 0kts
05-Dec-18 11:43 34.195950 -118.366901 181 781ft 0kts
05-Dec-18 11:44 34.195949 -118.366901 181 781ft 0kts
05-Dec-18 11:45 34.195948 -118.366901 181 781ft 0kts
05-Dec-18 11:46 34.195947 -118.366901 181 781ft 0kts
05-Dec-18 11:47 34.195946 -118.366901 181 781ft 0kts
05-Dec-18 11:48 34.195945 -118.366901 181 781ft 0kts
05-Dec-18 11:49 34.195944 -118.366901 181 781ft 0kts
05-Dec-18 11:50 34.195943 -118.366901 181 781ft 0kts
05-Dec-18 11:51 34.195882 -118.366709 80 781ft 7kts
05-Dec-18 11:52 34.196149 -118.366318 66 781ft 0kts
05-Dec-18 11:53 34.196149 -118.366317 66 781ft 0kts
05-Dec-18 11:54 34.196269 -118.366173 19 781ft 2kts
05-Dec-18 11:55 34.196747 -118.367640 269 781ft 5kts
05-Dec-18 11:56 34.196963 -118.368965 343 781ft 0kts
05-Dec-18 11:57 34.196963 -118.368965 343 781ft 0kts
05-Dec-18 11:58 34.196964 -118.368965 343 781ft 0kts
05-Dec-18 11:59 34.196964 -118.368965 343 781ft 0kts
05-Dec-18 12:00 34.197318 -118.369017 359 781ft 10kts
05-Dec-18 12:01 34.197872 -118.358485 92 855ft 81kts
05-Dec-18 12:02 34.187079 -118.350418 225 1629ft 91kts
05-Dec-18 12:03 34.169515 -118.373901 225 2338ft 96kts
05-Dec-18 12:04 34.150220 -118.395873 225 3049ft 92kts
05-Dec-18 12:05 34.131731 -118.416471 253 3714ft 86kts
05-Dec-18 12:06 34.150679 -118.423576 352 4376ft 81kts
05-Dec-18 12:07 34.173557 -118.424890 352 5003ft 82kts
05-Dec-18 12:08 34.186614 -118.442411 293 5617ft 76kts
05-Dec-18 12:09 34.195597 -118.466444 296 6037ft 89kts
05-Dec-18 12:10 34.206741 -118.494846 296 5993ft 90kts
05-Dec-18 12:11 34.217347 -118.522049 296 6001ft 89kts
05-Dec-18 12:12 34.228356 -118.550300 296 6003ft 95kts
05-Dec-18 12:13 34.239641 -118.579274 296 6002ft 95kts
05-Dec-18 12:14 34.250944 -118.608327 296 6007ft 95kts
05-Dec-18 12:15 34.262205 -118.637304 296 6006ft 95kts
05-Dec-18 12:16 34.273494 -118.666366 296 6008ft 95kts
05-Dec-18 12:17 34.284881 -118.695714 296 5988ft 97kts
05-Dec-18 12:18 34.296225 -118.724983 296 6006ft 95kts
05-Dec-18 12:19 34.306566 -118.754486 300 6008ft 95kts
05-Dec-18 12:20 34.318634 -118.783116 296 6006ft 95kts
05-Dec-18 12:21 34.329961 -118.812184 296 6006ft 95kts
05-Dec-18 12:22 34.341281 -118.841468 296 5993ft 96kts
05-Dec-18 12:23 34.352631 -118.870875 296 5996ft 96kts
05-Dec-18 12:24 34.355166 -118.902546 268 6002ft 98kts
05-Dec-18 12:26 34.352730 -118.935518 268 6004ft 98kts
05-Dec-18 12:27 34.350231 -118.970365 268 6023ft 123kts
05-Dec-18 12:28 34.347502 -119.006651 268 5999ft 99kts
05-Dec-18 12:29 34.345045 -119.039720 268 6007ft 98kts
05-Dec-18 12:30 34.342603 -119.072667 268 6009ft 98kts
05-Dec-18 12:31 34.340150 -119.105678 268 6009ft 98kts
05-Dec-18 12:32 34.337689 -119.138673 268 6009ft 98kts
05-Dec-18 12:33 34.335217 -119.171685 268 6009ft 98kts
05-Dec-18 12:34 34.332733 -119.204758 268 6002ft 99kts
05-Dec-18 12:35 34.330239 -119.237918 268 5999ft 98kts
05-Dec-18 12:36 34.327749 -119.270962 268 5999ft 98kts
05-Dec-18 12:37 34.325248 -119.303922 268 5999ft 98kts
05-Dec-18 12:38 34.322775 -119.336332 268 5998ft 98kts
05-Dec-18 12:39 34.320278 -119.368963 268 5999ft 98kts
05-Dec-18 12:40 34.317748 -119.402071 268 5605ft 98kts
05-Dec-18 12:41 34.315238 -119.434750 267 4993ft 97kts
05-Dec-18 12:42 34.315199 -119.466913 284 4394ft 95kts
05-Dec-18 12:43 34.321945 -119.497598 285 3978ft 86kts
05-Dec-18 12:44 34.327656 -119.523802 285 3994ft 78kts
05-Dec-18 12:45 34.332576 -119.549583 285 3991ft 79kts
05-Dec-18 12:46 34.337270 -119.575733 285 3990ft 79kts
05-Dec-18 12:46 34.341209 -119.597471 285 3990ft 79kts
05-Dec-18 12:48 34.342856 -119.628580 273 3990ft 80kts
05-Dec-18 12:48 34.342739 -119.651229 273 3990ft 80kts
05-Dec-18 12:49 34.342614 -119.678297 273 3990ft 80kts
05-Dec-18 12:51 34.342487 -119.709878 273 3990ft 80kts
05-Dec-18 12:51 34.342478 -119.732485 273 3990ft 80kts
05-Dec-18 12:52 34.342473 -119.759488 274 3990ft 80kts
05-Dec-18 12:53 34.342600 -119.790049 274 3520ft 100kts
05-Dec-18 12:54 34.343062 -119.824263 274 2831ft 103kts
05-Dec-18 12:55 34.343236 -119.860091 274 2133ft 107kts
05-Dec-18 12:56 34.343810 -119.892439 274 1968ft 86kts
05-Dec-18 12:57 34.344603 -119.924386 274 1996ft 100kts
05-Dec-18 12:58 34.345915 -119.958480 274 1991ft 101kts
05-Dec-18 12:59 34.347638 -119.992315 274 1994ft 100kts
05-Dec-18 13:00 34.349576 -120.025599 275 2000ft 98kts
05-Dec-18 13:01 34.364568 -120.044158 355 2013ft 92kts
05-Dec-18 13:02 34.389281 -120.047908 355 1990ft 84kts
05-Dec-18 13:03 34.403627 -120.033233 65 2006ft 79kts
05-Dec-18 13:04 34.413162 -120.007260 65 1789ft 82kts
05-Dec-18 13:05 34.423060 -119.983080 65 1787ft 78kts
05-Dec-18 13:06 34.424936 -119.957499 86 1737ft 80kts
05-Dec-18 13:07 34.426224 -119.933575 87 1348ft 71kts
05-Dec-18 13:08 34.427242 -119.908774 90 912ft 72kts
05-Dec-18 13:09 34.427338 -119.885461 92 632ft 70kts
05-Dec-18 13:10 34.427471 -119.863735 91 253ft 59kts
05-Dec-18 13:11 34.427630 -119.847878 92 13ft 11kts
05-Dec-18 13:12 34.428307 -119.845746 54 13ft 8kts

Navigation Log

Ident Type
Flight plan parsing failed, navigation log unavailable